KCDS

Childress Municipal Airport

Childress, Texas, USA
METAR KCDS 151853Z AUTO 03011KT 10SM CLR 09/M01 A2980 RMK AO2 SLP085 T00891011
Observed Flight Rules
Feb-15 @ 18:53 UTC (15 minutes ago) Visual Flight Rules
Wind Visibility Clouds
30° at 11 knots 10 miles
  • Clear skies
Temperatures Readings
Current 9°C / 48°F
Dewpoint -1°C / 30°F
Humidity 50%
Altimeter 29.8" Hg
Pressure 1008.5 hPa
Elevation 594
METAR KCDS 151853Z AUTO 03011KT 10SM CLR 09/M01 A2980 RMK AO2 SLP085 T00891011
Observed Flight Rules
Feb-15 @ 18:53 UTC
(15 minutes ago)
VFR
Wind Visibility
30° at 11 knots 10 miles
Clouds
  • Clear skies
Temperature Dewpoint
9°C / 48°F -1°C / 30°F
Humidity Altimeter Pressure
50% 29.8" Hg 1008.5 hPa